aviador You're here:

KCBE Decoded Metar

CUMBERLAND REG in MD, USA
Report Time2017-06-29 06:53:00
UTC Time2017-06-29 07:07:20
Flight Rules vfr VFR
Wind050° at 04 kt
W.Decomp.*RWY 05: 3.9 kt HW 0.7 kt RCW
RWY 11: 2.6 kt HW 3.1 kt LCW
W.Rank050° ranks 31
Current wind is below 050° avg. (4.2)
Visibility9999 m
Phenomena:N/A
Clouds:N/A
CeilingNone
Temp13°C (ISA -0)
Dew Point13°C (100% RH)
AAT12.5°C
QNH1022 hPa
Density Alt620 ft
Elevation774 ft
Report Wrong Elevation
Raw Report
KCBE 290653Z AUTO 05004KT 10SM CLR 13/13 A3017 RMK AO1=

Extra information for KCBE:More info

Metar Taf Metar & Taf Last 4 Metars F.Rules Stats Wind Profile Meteogram Temp Stats Airport Information Weather charts Add Link Nearby VenuesMetar ALERT Operation Metar Decoded Social comments

AIRNAV info for KCBE